createdAt,value
2018-03-16T00:02:21.922Z,7.88
2018-03-16T00:04:50.076Z,7.91
2018-03-16T00:07:18.186Z,7.86
2018-03-16T00:09:46.283Z,7.86
2018-03-16T00:12:14.387Z,7.88
2018-03-16T00:27:42.507Z,7.82
2018-03-16T00:30:10.754Z,7.79
2018-03-16T00:32:38.837Z,7.82
2018-03-16T00:35:06.929Z,7.79
2018-03-16T00:37:35.075Z,7.82
2018-03-16T00:40:03.211Z,7.88
2018-03-16T00:42:31.285Z,7.87
2018-03-16T00:44:59.389Z,7.88
2018-03-16T00:47:28.484Z,7.93
2018-03-16T00:49:57.387Z,7.85
2018-03-16T00:52:26.426Z,7.88
2018-03-16T00:54:54.610Z,7.88
2018-03-16T00:57:22.706Z,7.84
2018-03-16T00:59:51.447Z,7.81
2018-03-16T01:02:20.281Z,7.85
2018-03-16T01:04:48.369Z,7.85
2018-03-16T01:07:16.458Z,7.80
2018-03-16T01:09:44.766Z,7.79
2018-03-16T01:12:12.830Z,7.82
2018-03-16T01:14:40.939Z,7.79
2018-03-16T01:17:09.065Z,7.77
2018-03-16T01:19:37.547Z,7.79
2018-03-16T01:22:05.695Z,7.73
2018-03-16T01:24:33.782Z,7.67
2018-03-16T01:27:01.873Z,7.73
2018-03-16T01:29:30.124Z,7.71
2018-03-16T01:31:58.235Z,7.76
2018-03-16T01:34:26.815Z,7.74
2018-03-16T01:36:54.977Z,7.78
2018-03-16T01:39:23.763Z,7.78
2018-03-16T01:41:51.924Z,7.78
2018-03-16T01:44:20.005Z,7.77
2018-03-16T01:46:48.123Z,7.82
2018-03-16T01:49:16.220Z,7.81
2018-03-16T01:51:44.327Z,7.84
2018-03-16T01:54:13.302Z,7.82
2018-03-16T01:56:41.464Z,7.80
2018-03-16T01:59:09.773Z,7.77
2018-03-16T02:01:37.873Z,7.77
2018-03-16T02:04:05.970Z,7.81
2018-03-16T02:06:34.690Z,7.84
2018-03-16T02:09:02.800Z,7.78
2018-03-16T02:11:30.900Z,7.81
2018-03-16T02:13:59.057Z,7.82
2018-03-16T02:16:27.147Z,7.84
2018-03-16T02:18:55.245Z,7.80
2018-03-16T02:21:23.399Z,7.85
2018-03-16T02:23:51.540Z,7.88
2018-03-16T02:26:20.493Z,7.92
2018-03-16T02:28:48.748Z,7.82
2018-03-16T02:31:16.857Z,7.90
2018-03-16T02:33:44.941Z,7.91
2018-03-16T02:36:14.178Z,7.94
2018-03-16T02:38:44.325Z,7.90
2018-03-16T02:41:12.762Z,7.90
2018-03-16T02:43:41.741Z,7.95
2018-03-16T02:46:10.123Z,7.98
2018-03-16T02:48:39.186Z,7.92
2018-03-16T02:51:07.342Z,7.96
2018-03-16T02:53:35.381Z,7.99
2018-03-16T02:56:04.386Z,7.90
2018-03-16T02:58:32.558Z,7.94
2018-03-16T03:01:00.652Z,7.93
2018-03-16T03:03:29.238Z,7.88
2018-03-16T03:05:57.338Z,7.85
2018-03-16T03:08:26.418Z,7.83
2018-03-16T03:10:54.545Z,7.86
2018-03-16T03:13:23.511Z,7.85
2018-03-16T03:15:52.260Z,7.82
2018-03-16T03:18:20.379Z,7.90
2018-03-16T03:20:48.512Z,7.93
2018-03-16T03:23:16.675Z,7.91
2018-03-16T03:25:44.762Z,7.92
2018-03-16T03:28:12.891Z,7.86
2018-03-16T03:30:40.988Z,7.86
2018-03-16T03:33:09.093Z,7.80
2018-03-16T03:35:37.202Z,7.81
2018-03-16T03:38:05.304Z,7.84
2018-03-16T03:40:33.398Z,7.81
2018-03-16T03:43:01.910Z,7.85
2018-03-16T03:45:30.004Z,7.85
2018-03-16T03:47:58.114Z,7.82
2018-03-16T03:50:26.213Z,7.86
2018-03-16T03:52:54.318Z,7.84
2018-03-16T03:55:22.438Z,7.82
2018-03-16T03:57:51.192Z,7.80
2018-03-16T04:00:19.398Z,7.81
2018-03-16T04:02:47.495Z,7.84
2018-03-16T04:05:15.591Z,7.77
2018-03-16T04:07:43.777Z,7.75
2018-03-16T04:10:11.890Z,7.72
2018-03-16T04:12:39.999Z,7.69
2018-03-16T04:15:09.262Z,7.73
2018-03-16T04:17:37.345Z,7.75
2018-03-16T04:20:05.445Z,7.72
2018-03-16T04:22:33.541Z,7.79
2018-03-16T04:25:01.647Z,7.83
2018-03-16T04:27:29.909Z,7.77
2018-03-16T04:29:58.042Z,7.68
2018-03-16T04:32:26.134Z,7.67
2018-03-16T04:34:54.226Z,7.64
2018-03-16T04:37:23.132Z,7.59
2018-03-16T04:39:51.225Z,7.62
2018-03-16T04:42:19.315Z,7.62
2018-03-16T04:44:47.437Z,7.67
2018-03-16T04:47:15.767Z,7.68
2018-03-16T04:49:44.861Z,7.72
2018-03-16T04:52:13.279Z,7.70
2018-03-16T04:54:41.345Z,7.65
2018-03-16T04:57:09.444Z,7.70
2018-03-16T04:59:37.619Z,7.65
2018-03-16T05:02:05.721Z,7.66
2018-03-16T05:04:34.229Z,7.68
2018-03-16T05:07:02.337Z,7.70
2018-03-16T05:09:36.271Z,7.69
2018-03-16T05:12:04.365Z,7.70
2018-03-16T05:14:34.065Z,7.71
2018-03-16T05:17:02.439Z,7.74
2018-03-16T05:19:31.382Z,7.67
2018-03-16T05:21:59.811Z,7.70
2018-03-16T05:24:27.957Z,7.67
2018-03-16T05:26:56.192Z,7.66
2018-03-16T05:29:24.271Z,7.65
2018-03-16T05:31:52.409Z,7.63
2018-03-16T05:34:21.319Z,7.70
2018-03-16T05:36:50.155Z,7.69
2018-03-16T05:39:18.917Z,7.68
2018-03-16T05:41:47.021Z,7.61
2018-03-16T05:44:16.371Z,7.63
2018-03-16T05:46:44.443Z,7.67
2018-03-16T05:49:12.575Z,7.71
2018-03-16T05:51:40.709Z,7.63
2018-03-16T05:54:08.807Z,7.62
2018-03-16T05:56:36.957Z,7.58
2018-03-16T05:59:05.052Z,7.59
2018-03-16T06:01:33.216Z,7.62
2018-03-16T06:04:02.977Z,7.58
2018-03-16T06:06:31.178Z,7.57
2018-03-16T06:08:59.492Z,7.59
2018-03-16T06:11:28.926Z,7.62
2018-03-16T06:13:58.098Z,7.62
2018-03-16T06:16:27.441Z,7.62
2018-03-16T06:18:56.279Z,7.65
2018-03-16T06:21:24.388Z,7.63
2018-03-16T06:23:52.486Z,7.60
2018-03-16T06:26:21.457Z,7.55
2018-03-16T06:28:49.711Z,7.60
2018-03-16T06:31:17.899Z,7.60
2018-03-16T06:33:46.029Z,7.56
2018-03-16T06:36:14.109Z,7.56
2018-03-16T06:38:42.313Z,7.57
2018-03-16T06:41:10.432Z,7.56
2018-03-16T06:43:38.592Z,7.60
2018-03-16T06:46:06.682Z,7.56
2018-03-16T06:48:35.087Z,7.53
2018-03-16T06:51:03.199Z,7.53
2018-03-16T06:53:31.299Z,7.63
2018-03-16T06:55:59.401Z,7.59
2018-03-16T06:58:27.646Z,7.60
2018-03-16T07:00:56.393Z,7.53
2018-03-16T07:03:24.498Z,7.56
2018-03-16T07:05:52.616Z,7.49
2018-03-16T07:08:21.410Z,7.46
2018-03-16T07:10:49.584Z,7.42
2018-03-16T07:13:17.673Z,7.44
2018-03-16T07:15:45.839Z,7.47
2018-03-16T07:18:13.923Z,7.40
2018-03-16T07:20:42.102Z,7.40
2018-03-16T07:23:10.231Z,7.42
2018-03-16T07:25:39.207Z,7.36
2018-03-16T07:28:07.286Z,7.45
2018-03-16T07:30:35.424Z,7.23
2018-03-16T07:33:03.524Z,7.19
2018-03-16T07:35:31.638Z,7.17
2018-03-16T07:37:59.746Z,7.19
2018-03-16T07:40:27.890Z,7.23
2018-03-16T07:42:55.996Z,7.22
2018-03-16T07:48:38.630Z,7.24
2018-03-16T07:51:06.768Z,7.30
2018-03-16T07:53:34.904Z,7.20
2018-03-16T07:56:03.000Z,7.21
2018-03-16T07:58:32.101Z,7.31
2018-03-16T08:01:00.293Z,7.30
2018-03-16T08:03:28.725Z,7.34
2018-03-16T08:05:56.870Z,7.33
2018-03-16T08:08:24.991Z,7.32
2018-03-16T08:10:53.095Z,7.34
2018-03-16T08:13:21.288Z,7.30
2018-03-16T08:15:49.522Z,7.29
2018-03-16T08:18:17.627Z,7.30
2018-03-16T08:20:45.754Z,7.28
2018-03-16T08:23:13.863Z,7.29
2018-03-16T08:25:41.941Z,7.33
2018-03-16T08:28:10.749Z,7.36
2018-03-16T08:30:39.155Z,7.31
2018-03-16T08:33:07.256Z,7.21
2018-03-16T08:35:35.382Z,7.21
2018-03-16T08:38:03.524Z,7.11
2018-03-16T08:40:31.632Z,7.13
2018-03-16T08:42:59.794Z,7.17
2018-03-16T08:45:28.048Z,7.16
2018-03-16T08:47:56.152Z,7.16
2018-03-16T08:50:24.270Z,7.13
2018-03-16T08:52:52.372Z,7.08
2018-03-16T08:55:20.561Z,7.10
2018-03-16T08:57:48.690Z,7.10
2018-03-16T09:00:16.972Z,7.16
2018-03-16T09:02:45.058Z,7.16
2018-03-16T09:05:13.282Z,7.05
2018-03-16T09:07:41.432Z,7.20
2018-03-16T09:10:09.476Z,7.14
2018-03-16T09:12:38.609Z,7.07
2018-03-16T09:15:06.702Z,7.12
2018-03-16T09:17:34.826Z,7.12
2018-03-16T09:20:02.927Z,7.21
2018-03-16T09:22:31.046Z,7.23
2018-03-16T09:24:59.178Z,7.23
2018-03-16T09:27:27.359Z,7.28
2018-03-16T09:29:55.486Z,7.15
2018-03-16T09:32:23.654Z,7.14
2018-03-16T09:34:51.783Z,7.25
2018-03-16T09:37:20.725Z,7.30
2018-03-16T09:39:48.836Z,7.33
2018-03-16T09:42:16.962Z,7.39
2018-03-16T09:44:45.730Z,7.46
2018-03-16T09:47:13.848Z,7.47
2018-03-16T09:49:41.950Z,7.46
2018-03-16T09:52:10.054Z,7.41
2018-03-16T09:54:55.712Z,7.30
2018-03-16T09:57:23.808Z,7.40
2018-03-16T09:59:51.964Z,7.19
2018-03-16T10:02:20.078Z,7.14
2018-03-16T10:04:48.438Z,7.13
2018-03-16T10:07:16.559Z,7.22
2018-03-16T10:09:44.673Z,7.18
2018-03-16T10:12:12.783Z,7.07
2018-03-16T10:14:40.920Z,7.15
2018-03-16T10:17:09.011Z,7.09
2018-03-16T10:19:37.118Z,7.16
2018-03-16T10:22:05.214Z,7.05
2018-03-16T10:24:33.311Z,7.01
2018-03-16T10:27:01.442Z,7.07
2018-03-16T10:29:29.556Z,7.01
2018-03-16T10:31:57.930Z,7.15
2018-03-16T10:34:26.302Z,7.04
2018-03-16T10:36:54.392Z,6.94
2018-03-16T10:39:22.567Z,6.94
2018-03-16T10:41:50.751Z,6.98
2018-03-16T10:44:18.870Z,7.07
2018-03-16T10:59:47.007Z,7.19
2018-03-16T11:02:20.102Z,7.08
2018-03-16T11:17:53.289Z,6.86
2018-03-16T11:20:21.737Z,6.94
2018-03-16T11:22:50.150Z,6.89
2018-03-16T11:25:18.278Z,7.00
2018-03-16T11:27:46.380Z,6.97
2018-03-16T11:30:14.481Z,7.16
2018-03-16T11:32:42.607Z,6.90
2018-03-16T11:35:11.698Z,6.90
2018-03-16T11:37:39.809Z,6.82
2018-03-16T11:40:07.912Z,6.83
2018-03-16T11:42:36.016Z,6.80
2018-03-16T11:45:04.122Z,6.64
2018-03-16T11:47:32.399Z,6.71
2018-03-16T11:50:00.487Z,6.81
2018-03-16T11:52:28.572Z,6.77
2018-03-16T11:54:57.010Z,6.63
2018-03-16T11:57:25.112Z,6.67
2018-03-16T11:59:53.214Z,6.68
2018-03-16T12:02:21.934Z,6.72
2018-03-16T12:04:50.082Z,6.70
2018-03-16T12:07:23.154Z,6.68
2018-03-16T12:09:51.316Z,6.62
2018-03-16T12:12:19.703Z,6.65
2018-03-16T12:14:47.829Z,6.65
2018-03-16T12:17:15.934Z,6.68
2018-03-16T12:19:44.121Z,6.69
2018-03-16T12:22:12.217Z,6.80
2018-03-16T12:24:40.322Z,6.59
2018-03-16T12:27:08.430Z,6.60
2018-03-16T12:29:37.520Z,6.63
2018-03-16T12:32:05.615Z,6.36
2018-03-16T12:34:34.632Z,6.47
2018-03-16T12:37:02.815Z,6.44
2018-03-16T12:39:31.192Z,6.52
2018-03-16T12:41:59.270Z,6.51
2018-03-16T12:44:27.365Z,6.59
2018-03-16T12:46:55.638Z,6.62
2018-03-16T12:49:23.731Z,6.44
2018-03-16T12:51:51.996Z,6.29
2018-03-16T12:54:20.427Z,6.41
2018-03-16T12:56:48.593Z,6.46
2018-03-16T12:59:17.911Z,6.33
2018-03-16T13:01:46.034Z,6.27
2018-03-16T13:04:14.131Z,6.34
2018-03-16T13:06:42.319Z,6.37
2018-03-16T13:09:10.400Z,6.39
2018-03-16T13:11:38.489Z,6.34
2018-03-16T13:14:06.941Z,6.28
2018-03-16T13:16:35.139Z,6.30
2018-03-16T13:19:03.244Z,6.34
2018-03-16T13:21:31.341Z,6.36
2018-03-16T13:23:59.448Z,6.31
2018-03-16T13:26:27.638Z,6.32
2018-03-16T13:28:55.769Z,6.32
2018-03-16T13:31:23.877Z,6.21
2018-03-16T13:33:52.021Z,6.25
2018-03-16T13:36:20.213Z,6.27
2018-03-16T13:38:48.375Z,6.30
2018-03-16T13:41:16.466Z,6.23
2018-03-16T13:56:49.590Z,6.16
2018-03-16T13:59:18.457Z,6.23
2018-03-16T14:01:47.203Z,6.28
2018-03-16T14:17:15.363Z,6.31
2018-03-16T14:19:43.462Z,6.34
2018-03-16T14:22:11.549Z,6.11
2018-03-16T14:24:39.664Z,6.11
2018-03-16T14:27:07.914Z,6.27
2018-03-16T14:29:36.013Z,6.27
2018-03-16T14:32:04.448Z,6.16
2018-03-16T14:34:32.540Z,6.36
2018-03-16T14:37:00.680Z,6.18
2018-03-16T14:39:28.844Z,6.19
2018-03-16T14:41:56.925Z,6.26
2018-03-16T14:44:25.972Z,6.10
2018-03-16T14:46:54.123Z,6.10
2018-03-16T14:49:22.198Z,6.11
2018-03-16T14:51:50.586Z,6.01
2018-03-16T14:54:19.043Z,6.09
2018-03-16T14:56:47.247Z,6.03
2018-03-16T14:59:15.440Z,6.00
2018-03-16T15:01:43.551Z,5.93
2018-03-16T15:04:11.651Z,5.90
2018-03-16T15:06:40.509Z,6.02
2018-03-16T15:09:08.627Z,6.08
2018-03-16T15:11:36.873Z,6.04
2018-03-16T15:14:04.945Z,6.06
2018-03-16T15:16:33.037Z,6.04
2018-03-16T15:19:01.919Z,5.89
2018-03-16T15:21:30.037Z,5.93
2018-03-16T15:23:58.523Z,6.02
2018-03-16T15:26:26.683Z,5.87
2018-03-16T15:28:54.775Z,6.04
2018-03-16T15:31:22.870Z,5.96
2018-03-16T15:33:50.988Z,5.69
2018-03-16T15:36:19.091Z,5.80
2018-03-16T15:38:47.191Z,5.89
2018-03-16T15:41:15.553Z,5.90
2018-03-16T15:43:43.667Z,5.92
2018-03-16T15:46:11.746Z,5.84
2018-03-16T15:48:39.873Z,5.79
2018-03-16T15:51:07.980Z,5.73
2018-03-16T15:53:36.959Z,5.73
2018-03-16T15:56:05.073Z,5.64
2018-03-16T15:58:33.199Z,5.68
2018-03-16T16:01:01.332Z,5.61
2018-03-16T16:03:29.461Z,5.62
2018-03-16T16:05:57.571Z,5.48
2018-03-16T16:08:25.681Z,5.38
2018-03-16T16:10:53.798Z,5.31
2018-03-16T16:13:21.945Z,5.30
2018-03-16T16:15:50.040Z,5.38
2018-03-16T16:18:18.163Z,5.44
2018-03-16T16:20:46.419Z,5.18
2018-03-16T16:23:14.591Z,5.16
2018-03-16T16:25:43.425Z,5.10
2018-03-16T16:28:11.529Z,5.16
2018-03-16T16:30:39.643Z,5.09
2018-03-16T16:33:07.735Z,4.91
2018-03-16T16:35:36.187Z,5.04
2018-03-16T16:38:04.265Z,4.98
2018-03-16T16:40:33.191Z,4.96
2018-03-16T16:43:01.407Z,4.72
2018-03-16T16:45:29.513Z,4.79
2018-03-16T16:47:57.685Z,4.85
2018-03-16T16:50:25.851Z,4.80
2018-03-16T16:52:54.745Z,4.78
2018-03-16T16:55:22.853Z,4.70
2018-03-16T16:57:50.967Z,4.65
2018-03-16T17:00:19.234Z,4.51
2018-03-16T17:02:47.933Z,4.51
2018-03-16T17:05:16.045Z,4.53
2018-03-16T17:07:44.294Z,4.25
2018-03-16T17:10:12.394Z,4.26
2018-03-16T17:12:40.534Z,4.28
2018-03-16T17:15:09.642Z,4.29
2018-03-16T17:17:38.745Z,4.35
2018-03-16T17:20:07.743Z,4.27
2018-03-16T17:22:35.847Z,4.35
2018-03-16T17:25:04.495Z,4.25
2018-03-16T17:27:32.613Z,4.08
2018-03-16T17:30:00.694Z,4.06
2018-03-16T17:32:28.868Z,3.96
2018-03-16T17:34:57.463Z,3.83
2018-03-16T17:37:27.134Z,3.93
2018-03-16T17:39:55.227Z,3.82
2018-03-16T17:42:23.441Z,3.74
2018-03-16T17:44:51.526Z,3.80
2018-03-16T17:47:19.714Z,3.75
2018-03-16T17:49:47.824Z,3.80
2018-03-16T17:52:16.765Z,3.69
2018-03-16T17:54:44.890Z,3.79
2018-03-16T17:57:12.991Z,3.76
2018-03-16T17:59:46.158Z,3.51
2018-03-16T18:02:14.283Z,3.63
2018-03-16T18:04:42.730Z,3.54
2018-03-16T18:07:10.862Z,3.52
2018-03-16T18:09:38.971Z,3.61
2018-03-16T18:12:07.162Z,3.55
2018-03-16T18:14:35.299Z,3.50
2018-03-16T18:17:03.386Z,3.57
2018-03-16T18:19:31.503Z,3.48
2018-03-16T18:21:59.753Z,3.55
2018-03-16T18:24:27.873Z,3.50
2018-03-16T18:26:56.054Z,3.49
2018-03-16T18:29:25.050Z,3.42
2018-03-16T18:31:53.171Z,3.40
2018-03-16T18:34:21.273Z,3.44
2018-03-16T18:36:50.170Z,3.40
2018-03-16T18:39:19.084Z,3.30
2018-03-16T18:41:47.531Z,3.18
2018-03-16T18:44:16.450Z,3.10
2018-03-16T18:46:44.550Z,3.07
2018-03-16T18:49:12.702Z,3.02
2018-03-16T18:51:40.804Z,3.00
2018-03-16T18:54:09.938Z,2.96
2018-03-16T18:56:39.051Z,2.99
2018-03-16T18:59:07.394Z,2.96
2018-03-16T19:01:35.486Z,2.94
2018-03-16T19:04:03.612Z,2.95
2018-03-16T19:06:31.804Z,2.93
2018-03-16T19:08:59.881Z,2.84
2018-03-16T19:11:28.067Z,2.87
2018-03-16T19:13:56.218Z,2.88
2018-03-16T19:16:24.297Z,2.96
2018-03-16T19:18:52.464Z,2.89
2018-03-16T19:21:20.570Z,2.96
2018-03-16T19:23:48.726Z,2.91
2018-03-16T19:26:16.807Z,2.99
2018-03-16T19:28:45.186Z,2.97
2018-03-16T19:31:13.299Z,2.87
2018-03-16T19:33:41.392Z,2.76
2018-03-16T19:36:09.567Z,2.78
2018-03-16T19:38:37.676Z,2.82
2018-03-16T19:41:05.775Z,2.85
2018-03-16T19:43:34.170Z,2.73
2018-03-16T19:46:03.122Z,2.74
2018-03-16T19:48:31.221Z,2.86
2018-03-16T19:50:59.331Z,2.84
2018-03-16T19:53:28.311Z,2.88
2018-03-16T19:55:57.220Z,2.85
2018-03-16T19:58:25.678Z,2.71
2018-03-16T20:00:53.792Z,2.64
2018-03-16T20:03:21.974Z,2.75
2018-03-16T20:05:50.141Z,2.72
2018-03-16T20:21:23.273Z,2.59
2018-03-16T20:23:51.377Z,2.58
2018-03-16T20:26:19.830Z,2.58
2018-03-16T20:28:47.939Z,2.54
2018-03-16T20:31:16.957Z,2.68
2018-03-16T20:33:45.034Z,2.65
2018-03-16T20:36:13.211Z,2.64
2018-03-16T20:38:42.261Z,2.64
2018-03-16T20:41:10.370Z,2.50
2018-03-16T20:43:39.689Z,2.49
2018-03-16T20:46:07.799Z,2.39
2018-03-16T21:01:35.923Z,2.32
2018-03-16T21:04:04.134Z,2.37
2018-03-16T21:06:32.228Z,2.26
2018-03-16T21:09:00.355Z,2.21
2018-03-16T21:24:33.475Z,2.11
2018-03-16T21:27:01.589Z,2.00
2018-03-16T21:29:29.900Z,2.04
2018-03-16T21:31:57.994Z,1.99
2018-03-16T21:34:26.155Z,1.93
2018-03-16T21:36:55.195Z,1.95
2018-03-16T21:39:23.513Z,1.94
2018-03-16T21:41:51.576Z,1.95
2018-03-16T21:44:19.732Z,1.89
2018-03-16T21:46:48.344Z,1.86
2018-03-16T21:49:17.377Z,1.83
2018-03-16T21:51:45.459Z,1.89
2018-03-16T21:54:13.642Z,1.79
2018-03-16T21:56:41.746Z,1.78
2018-03-16T21:59:10.460Z,1.79
2018-03-16T22:01:38.646Z,1.88
2018-03-16T22:04:06.722Z,1.82
2018-03-16T22:06:34.851Z,1.81
2018-03-16T22:09:02.944Z,1.76
2018-03-16T22:11:31.044Z,1.78
2018-03-16T22:13:59.159Z,1.89
2018-03-16T22:16:28.220Z,1.80
2018-03-16T22:18:56.304Z,1.77
2018-03-16T22:21:25.155Z,1.75
2018-03-16T22:23:53.230Z,1.63
2018-03-16T22:26:21.314Z,1.73
2018-03-16T22:28:49.440Z,1.85
2018-03-16T22:31:17.570Z,1.80
2018-03-16T22:33:45.685Z,1.78
2018-03-16T22:36:13.812Z,1.66
2018-03-16T22:38:41.990Z,1.57
2018-03-16T22:41:10.191Z,1.59
2018-03-16T22:43:38.334Z,1.56
2018-03-16T22:59:07.199Z,1.38
2018-03-16T23:01:35.301Z,1.30
2018-03-16T23:04:03.407Z,1.38
2018-03-16T23:06:31.558Z,1.25
2018-03-16T23:09:00.530Z,1.20
2018-03-16T23:11:28.750Z,1.19
2018-03-16T23:13:57.126Z,1.19
2018-03-16T23:16:25.200Z,1.22
2018-03-16T23:18:53.958Z,1.19
2018-03-16T23:21:22.120Z,1.22
2018-03-16T23:23:50.330Z,1.11
2018-03-16T23:26:18.450Z,1.16
2018-03-16T23:28:46.552Z,1.24
2018-03-16T23:44:14.668Z,1.05
2018-03-16T23:46:43.147Z,1.03
2018-03-16T23:49:11.269Z,0.95
2018-03-16T23:51:39.365Z,0.98
2018-03-16T23:54:07.478Z,0.97
2018-03-16T23:56:35.594Z,1.02
2018-03-16T23:59:03.890Z,1.00
